sensor_id;sensor_type;location;lat;lon;timestamp;pressure;altitude;pressure_sealevel;temperature;humidity
37778;BME280;23615;51.506;7.678;2023-12-22T00:02:03;98379.63;;;5.87;100.00
37778;BME280;23615;51.506;7.678;2023-12-22T00:04:28;98372.13;;;5.84;100.00
37778;BME280;23615;51.506;7.678;2023-12-22T00:06:53;98379.41;;;5.77;100.00
37778;BME280;23615;51.506;7.678;2023-12-22T00:09:20;98386.22;;;5.73;100.00
37778;BME280;23615;51.506;7.678;2023-12-22T00:11:45;98388.84;;;5.73;100.00
37778;BME280;23615;51.506;7.678;2023-12-22T00:14:10;98385.63;;;5.71;99.79
37778;BME280;23615;51.506;7.678;2023-12-22T00:16:37;98406.78;;;5.71;99.65
37778;BME280;23615;51.506;7.678;2023-12-22T00:19:03;98399.44;;;5.73;99.73
37778;BME280;23615;51.506;7.678;2023-12-22T00:21:28;98395.06;;;5.67;98.70
37778;BME280;23615;51.506;7.678;2023-12-22T00:23:53;98404.28;;;5.64;99.06
37778;BME280;23615;51.506;7.678;2023-12-22T00:26:19;98398.19;;;5.63;98.81
37778;BME280;23615;51.506;7.678;2023-12-22T00:28:44;98409.78;;;5.62;98.83
37778;BME280;23615;51.506;7.678;2023-12-22T00:31:10;98422.53;;;5.65;99.48
37778;BME280;23615;51.506;7.678;2023-12-22T00:33:37;98406.13;;;5.63;99.60
37778;BME280;23615;51.506;7.678;2023-12-22T00:36:03;98420.16;;;5.64;99.52
37778;BME280;23615;51.506;7.678;2023-12-22T00:38:29;98427.38;;;5.69;99.19
37778;BME280;23615;51.506;7.678;2023-12-22T00:40:54;98429.13;;;5.63;99.14
37778;BME280;23615;51.506;7.678;2023-12-22T00:43:19;98434.88;;;5.60;99.64
37778;BME280;23615;51.506;7.678;2023-12-22T00:45:45;98421.88;;;5.58;99.58
37778;BME280;23615;51.506;7.678;2023-12-22T00:48:10;98440.50;;;5.52;99.23
37778;BME280;23615;51.506;7.678;2023-12-22T00:50:35;98432.56;;;5.52;99.59
37778;BME280;23615;51.506;7.678;2023-12-22T00:53:00;98442.91;;;5.53;99.88
37778;BME280;23615;51.506;7.678;2023-12-22T00:55:26;98444.16;;;5.39;100.00
37778;BME280;23615;51.506;7.678;2023-12-22T00:57:51;98444.28;;;5.44;100.00
37778;BME280;23615;51.506;7.678;2023-12-22T01:00:17;98435.06;;;5.47;100.00
37778;BME280;23615;51.506;7.678;2023-12-22T01:02:42;98437.72;;;5.47;100.00
37778;BME280;23615;51.506;7.678;2023-12-22T01:05:08;98433.72;;;5.44;100.00
37778;BME280;23615;51.506;7.678;2023-12-22T01:07:33;98419.91;;;5.42;100.00
37778;BME280;23615;51.506;7.678;2023-12-22T01:09:59;98411.84;;;5.37;100.00
37778;BME280;23615;51.506;7.678;2023-12-22T01:12:29;98432.56;;;5.40;100.00
37778;BME280;23615;51.506;7.678;2023-12-22T01:14:55;98438.88;;;5.39;100.00
37778;BME280;23615;51.506;7.678;2023-12-22T01:17:21;98459.59;;;5.42;100.00
37778;BME280;23615;51.506;7.678;2023-12-22T01:19:46;98459.59;;;5.42;100.00
37778;BME280;23615;51.506;7.678;2023-12-22T01:22:11;98452.78;;;5.46;100.00
37778;BME280;23615;51.506;7.678;2023-12-22T01:24:37;98459.47;;;5.49;100.00
37778;BME280;23615;51.506;7.678;2023-12-22T01:27:06;98454.06;;;5.44;100.00
37778;BME280;23615;51.506;7.678;2023-12-22T01:29:31;98454.75;;;5.39;100.00
37778;BME280;23615;51.506;7.678;2023-12-22T01:31:56;98455.91;;;5.43;100.00
37778;BME280;23615;51.506;7.678;2023-12-22T01:34:21;98460.59;;;5.41;100.00
37778;BME280;23615;51.506;7.678;2023-12-22T01:36:47;98463.25;;;5.41;100.00
37778;BME280;23615;51.506;7.678;2023-12-22T01:39:12;98476.47;;;5.41;100.00
37778;BME280;23615;51.506;7.678;2023-12-22T01:41:37;98458.06;;;5.46;100.00
37778;BME280;23615;51.506;7.678;2023-12-22T01:44:03;98479.34;;;5.40;100.00
37778;BME280;23615;51.506;7.678;2023-12-22T01:46:28;98479.22;;;5.46;100.00
37778;BME280;23615;51.506;7.678;2023-12-22T01:48:53;98483.97;;;5.44;100.00
37778;BME280;23615;51.506;7.678;2023-12-22T01:51:19;98483.81;;;5.39;100.00
37778;BME280;23615;51.506;7.678;2023-12-22T01:53:45;98486.59;;;5.44;100.00
37778;BME280;23615;51.506;7.678;2023-12-22T01:56:11;98478.09;;;5.42;100.00
37778;BME280;23615;51.506;7.678;2023-12-22T01:58:37;98495.00;;;5.41;100.00
37778;BME280;23615;51.506;7.678;2023-12-22T02:01:03;98489.25;;;5.44;100.00
37778;BME280;23615;51.506;7.678;2023-12-22T02:03:29;98486.84;;;5.54;100.00
37778;BME280;23615;51.506;7.678;2023-12-22T02:05:55;98480.41;;;5.50;100.00
37778;BME280;23615;51.506;7.678;2023-12-22T02:08:21;98496.97;;;5.46;100.00
37778;BME280;23615;51.506;7.678;2023-12-22T02:10:48;98487.66;;;5.55;99.96
37778;BME280;23615;51.506;7.678;2023-12-22T02:13:13;98477.84;;;5.55;98.20
37778;BME280;23615;51.506;7.678;2023-12-22T02:15:39;98486.75;;;5.61;98.91
37778;BME280;23615;51.506;7.678;2023-12-22T02:18:11;98489.38;;;5.61;99.79
37778;BME280;23615;51.506;7.678;2023-12-22T02:20:38;98482.47;;;5.60;100.00
37778;BME280;23615;51.506;7.678;2023-12-22T02:23:03;98463.16;;;5.59;100.00
37778;BME280;23615;51.506;7.678;2023-12-22T02:25:29;98458.22;;;5.51;100.00
37778;BME280;23615;51.506;7.678;2023-12-22T02:28:19;98463.59;;;5.56;100.00
37778;BME280;23615;51.506;7.678;2023-12-22T02:30:56;98471.00;;;5.54;100.00
37778;BME280;23615;51.506;7.678;2023-12-22T02:33:28;98469.59;;;5.63;100.00
37778;BME280;23615;51.506;7.678;2023-12-22T02:35:58;98481.56;;;5.54;99.70
37778;BME280;23615;51.506;7.678;2023-12-22T02:38:27;98488.00;;;5.58;99.90
37778;BME280;23615;51.506;7.678;2023-12-22T02:40:54;98493.50;;;5.57;99.31
37778;BME280;23615;51.506;7.678;2023-12-22T02:43:20;98490.88;;;5.57;98.43
37778;BME280;23615;51.506;7.678;2023-12-22T02:45:50;98483.72;;;5.57;98.78
37778;BME280;23615;51.506;7.678;2023-12-22T02:48:15;98492.03;;;5.61;98.99
37778;BME280;23615;51.506;7.678;2023-12-22T02:50:40;98486.28;;;5.52;98.62
37778;BME280;23615;51.506;7.678;2023-12-22T02:53:06;98479.13;;;5.41;98.50
37778;BME280;23615;51.506;7.678;2023-12-22T02:55:31;98491.91;;;5.44;99.10
37778;BME280;23615;51.506;7.678;2023-12-22T02:57:56;98492.72;;;5.45;98.79
37778;BME280;23615;51.506;7.678;2023-12-22T03:00:22;98483.03;;;5.39;98.74
37778;BME280;23615;51.506;7.678;2023-12-22T03:02:47;98494.28;;;5.34;99.83
37778;BME280;23615;51.506;7.678;2023-12-22T03:05:12;98483.03;;;5.39;99.91
37778;BME280;23615;51.506;7.678;2023-12-22T03:07:37;98495.66;;;5.25;100.00
37778;BME280;23615;51.506;7.678;2023-12-22T03:10:03;98505.06;;;5.21;100.00
37778;BME280;23615;51.506;7.678;2023-12-22T03:12:28;98523.00;;;5.31;100.00
37778;BME280;23615;51.506;7.678;2023-12-22T03:14:54;98504.72;;;5.29;100.00
37778;BME280;23615;51.506;7.678;2023-12-22T03:17:19;98510.00;;;5.29;100.00
37778;BME280;23615;51.506;7.678;2023-12-22T03:19:44;98503.13;;;5.28;100.00
37778;BME280;23615;51.506;7.678;2023-12-22T03:22:09;98503.25;;;5.33;100.00
37778;BME280;23615;51.506;7.678;2023-12-22T03:24:35;98500.97;;;5.37;100.00
37778;BME280;23615;51.506;7.678;2023-12-22T03:27:02;98507.25;;;5.24;100.00
37778;BME280;23615;51.506;7.678;2023-12-22T03:29:27;98498.06;;;5.26;100.00
37778;BME280;23615;51.506;7.678;2023-12-22T03:31:52;98497.38;;;5.31;99.80
37778;BME280;23615;51.506;7.678;2023-12-22T03:34:18;98504.06;;;5.34;100.00
37778;BME280;23615;51.506;7.678;2023-12-22T03:36:43;98504.88;;;5.34;99.12
37778;BME280;23615;51.506;7.678;2023-12-22T03:39:13;98517.28;;;5.34;99.43
37778;BME280;23615;51.506;7.678;2023-12-22T03:41:38;98513.13;;;5.38;98.81
37778;BME280;23615;51.506;7.678;2023-12-22T03:44:03;98545.69;;;5.38;98.43
37778;BME280;23615;51.506;7.678;2023-12-22T03:46:29;98531.97;;;5.30;98.54
37778;BME280;23615;51.506;7.678;2023-12-22T03:48:54;98521.06;;;5.38;97.05
37778;BME280;23615;51.506;7.678;2023-12-22T03:51:19;98504.06;;;5.34;96.09
37778;BME280;23615;51.506;7.678;2023-12-22T03:53:45;98524.41;;;5.33;95.87
37778;BME280;23615;51.506;7.678;2023-12-22T03:56:10;98520.03;;;5.39;95.35
37778;BME280;23615;51.506;7.678;2023-12-22T03:58:36;98520.03;;;5.39;95.47
37778;BME280;23615;51.506;7.678;2023-12-22T04:01:02;98512.25;;;5.44;95.54
37778;BME280;23615;51.506;7.678;2023-12-22T04:03:27;98543.63;;;5.40;93.77
37778;BME280;23615;51.506;7.678;2023-12-22T04:05:53;98526.94;;;5.40;94.26
37778;BME280;23615;51.506;7.678;2023-12-22T04:08:18;98533.63;;;5.42;94.95
37778;BME280;23615;51.506;7.678;2023-12-22T04:10:45;98547.50;;;5.38;95.35
37778;BME280;23615;51.506;7.678;2023-12-22T04:13:11;98553.41;;;5.40;96.08
37778;BME280;23615;51.506;7.678;2023-12-22T04:15:36;98556.56;;;5.18;98.35
37778;BME280;23615;51.506;7.678;2023-12-22T04:18:02;98549.50;;;5.01;100.00
37778;BME280;23615;51.506;7.678;2023-12-22T04:20:27;98525.38;;;4.79;100.00
37778;BME280;23615;51.506;7.678;2023-12-22T04:22:52;98530.59;;;4.67;100.00
37778;BME280;23615;51.506;7.678;2023-12-22T04:25:18;98516.44;;;4.62;100.00
37778;BME280;23615;51.506;7.678;2023-12-22T04:27:43;98522.59;;;4.56;100.00
37778;BME280;23615;51.506;7.678;2023-12-22T04:30:09;98515.06;;;4.59;100.00
37778;BME280;23615;51.506;7.678;2023-12-22T04:32:34;98529.06;;;4.60;100.00
37778;BME280;23615;51.506;7.678;2023-12-22T04:35:00;98524.59;;;4.60;100.00
37778;BME280;23615;51.506;7.678;2023-12-22T04:37:25;98521.28;;;4.65;100.00
37778;BME280;23615;51.506;7.678;2023-12-22T04:39:51;98535.00;;;4.73;100.00
37778;BME280;23615;51.506;7.678;2023-12-22T04:42:16;98532.38;;;4.73;100.00
37778;BME280;23615;51.506;7.678;2023-12-22T04:44:41;98536.53;;;4.81;100.00
37778;BME280;23615;51.506;7.678;2023-12-22T04:47:07;98532.59;;;4.72;100.00
37778;BME280;23615;51.506;7.678;2023-12-22T04:49:32;98535.44;;;4.70;100.00
37778;BME280;23615;51.506;7.678;2023-12-22T04:51:57;98550.06;;;4.73;100.00
37778;BME280;23615;51.506;7.678;2023-12-22T04:54:23;98538.50;;;4.67;100.00
37778;BME280;23615;51.506;7.678;2023-12-22T04:56:48;98529.84;;;4.78;100.00
37778;BME280;23615;51.506;7.678;2023-12-22T04:59:13;98561.19;;;4.75;100.00
37778;BME280;23615;51.506;7.678;2023-12-22T05:01:39;98558.41;;;4.70;100.00
37778;BME280;23615;51.506;7.678;2023-12-22T05:04:04;98542.34;;;4.71;100.00
37778;BME280;23615;51.506;7.678;2023-12-22T05:06:29;98550.84;;;4.73;100.00
37778;BME280;23615;51.506;7.678;2023-12-22T05:08:55;98548.50;;;4.65;100.00
37778;BME280;23615;51.506;7.678;2023-12-22T05:11:21;98555.25;;;4.79;100.00
37778;BME280;23615;51.506;7.678;2023-12-22T05:13:47;98555.69;;;4.76;100.00
37778;BME280;23615;51.506;7.678;2023-12-22T05:16:12;98552.53;;;4.68;100.00
37778;BME280;23615;51.506;7.678;2023-12-22T05:18:38;98561.97;;;4.75;100.00
37778;BME280;23615;51.506;7.678;2023-12-22T05:21:04;98571.31;;;4.78;100.00
37778;BME280;23615;51.506;7.678;2023-12-22T05:23:29;98566.41;;;4.81;100.00
37778;BME280;23615;51.506;7.678;2023-12-22T05:25:54;98558.47;;;4.81;100.00
37778;BME280;23615;51.506;7.678;2023-12-22T05:28:20;98589.28;;;4.87;100.00
37778;BME280;23615;51.506;7.678;2023-12-22T05:30:45;98574.88;;;4.83;100.00
37778;BME280;23615;51.506;7.678;2023-12-22T05:33:10;98569.38;;;4.85;100.00
37778;BME280;23615;51.506;7.678;2023-12-22T05:35:36;98574.25;;;4.88;100.00
37778;BME280;23615;51.506;7.678;2023-12-22T05:38:01;98567.72;;;4.91;100.00
37778;BME280;23615;51.506;7.678;2023-12-22T05:40:27;98566.22;;;4.95;100.00
37778;BME280;23615;51.506;7.678;2023-12-22T05:42:52;98583.38;;;5.04;100.00
37778;BME280;23615;51.506;7.678;2023-12-22T05:45:17;98575.31;;;4.99;100.00
37778;BME280;23615;51.506;7.678;2023-12-22T05:47:43;98577.50;;;5.02;100.00
37778;BME280;23615;51.506;7.678;2023-12-22T05:50:09;98595.78;;;5.03;100.00
37778;BME280;23615;51.506;7.678;2023-12-22T05:52:36;98589.13;;;5.01;100.00
37778;BME280;23615;51.506;7.678;2023-12-22T05:55:01;98588.56;;;5.10;100.00
37778;BME280;23615;51.506;7.678;2023-12-22T05:57:26;98595.25;;;5.13;100.00
37778;BME280;23615;51.506;7.678;2023-12-22T05:59:52;98591.97;;;5.17;100.00
37778;BME280;23615;51.506;7.678;2023-12-22T06:02:17;98603.78;;;5.15;100.00
37778;BME280;23615;51.506;7.678;2023-12-22T06:04:43;98598.88;;;5.18;100.00
37778;BME280;23615;51.506;7.678;2023-12-22T06:07:09;98592.31;;;5.21;100.00
37778;BME280;23615;51.506;7.678;2023-12-22T06:09:35;98616.69;;;5.23;100.00
37778;BME280;23615;51.506;7.678;2023-12-22T06:12:00;98605.53;;;5.21;100.00
37778;BME280;23615;51.506;7.678;2023-12-22T06:14:26;98607.94;;;5.22;100.00
37778;BME280;23615;51.506;7.678;2023-12-22T06:16:51;98624.03;;;5.21;100.00
37778;BME280;23615;51.506;7.678;2023-12-22T06:19:18;98634.59;;;5.21;100.00
37778;BME280;23615;51.506;7.678;2023-12-22T06:21:44;98641.50;;;5.22;100.00
37778;BME280;23615;51.506;7.678;2023-12-22T06:24:09;98633.94;;;5.25;100.00
37778;BME280;23615;51.506;7.678;2023-12-22T06:26:35;98637.63;;;5.24;100.00
37778;BME280;23615;51.506;7.678;2023-12-22T06:29:00;98622.34;;;5.26;100.00
37778;BME280;23615;51.506;7.678;2023-12-22T06:31:25;98630.50;;;5.25;100.00
37778;BME280;23615;51.506;7.678;2023-12-22T06:33:51;98622.09;;;5.28;100.00
37778;BME280;23615;51.506;7.678;2023-12-22T06:36:24;98626.13;;;5.31;100.00
37778;BME280;23615;51.506;7.678;2023-12-22T06:38:53;98621.66;;;5.31;100.00
37778;BME280;23615;51.506;7.678;2023-12-22T06:41:27;98619.22;;;5.30;100.00
37778;BME280;23615;51.506;7.678;2023-12-22T06:43:52;98633.72;;;5.27;100.00
37778;BME280;23615;51.506;7.678;2023-12-22T06:46:19;98623.28;;;5.32;100.00
37778;BME280;23615;51.506;7.678;2023-12-22T06:48:45;98631.13;;;5.39;100.00
37778;BME280;23615;51.506;7.678;2023-12-22T06:51:36;98621.72;;;5.43;100.00
37778;BME280;23615;51.506;7.678;2023-12-22T06:54:02;98632.50;;;5.41;100.00
37778;BME280;23615;51.506;7.678;2023-12-22T06:56:32;98630.31;;;5.38;100.00
37778;BME280;23615;51.506;7.678;2023-12-22T06:58:58;98631.34;;;5.37;100.00
37778;BME280;23615;51.506;7.678;2023-12-22T07:01:29;98633.25;;;5.30;100.00
37778;BME280;23615;51.506;7.678;2023-12-22T07:03:55;98634.84;;;5.49;100.00
37778;BME280;23615;51.506;7.678;2023-12-22T07:06:21;98622.31;;;5.45;100.00
37778;BME280;23615;51.506;7.678;2023-12-22T07:11:46;98618.31;;;5.54;100.00
37778;BME280;23615;51.506;7.678;2023-12-22T07:14:11;98620.63;;;5.62;100.00
37778;BME280;23615;51.506;7.678;2023-12-22T07:16:37;98617.84;;;5.57;100.00
37778;BME280;23615;51.506;7.678;2023-12-22T07:19:03;98624.03;;;5.51;100.00
37778;BME280;23615;51.506;7.678;2023-12-22T07:21:29;98631.69;;;5.41;100.00
37778;BME280;23615;51.506;7.678;2023-12-22T07:23:54;98633.09;;;5.43;100.00
37778;BME280;23615;51.506;7.678;2023-12-22T07:26:19;98642.22;;;5.29;100.00
37778;BME280;23615;51.506;7.678;2023-12-22T07:28:47;98648.78;;;5.26;100.00
37778;BME280;23615;51.506;7.678;2023-12-22T07:31:13;98629.31;;;5.21;100.00
37778;BME280;23615;51.506;7.678;2023-12-22T07:33:39;98635.41;;;5.21;100.00
37778;BME280;23615;51.506;7.678;2023-12-22T07:36:06;98635.66;;;5.02;100.00
37778;BME280;23615;51.506;7.678;2023-12-22T07:38:31;98634.28;;;4.99;100.00
37778;BME280;23615;51.506;7.678;2023-12-22T07:40:56;98633.88;;;5.14;100.00
37778;BME280;23615;51.506;7.678;2023-12-22T07:43:22;98626.59;;;5.28;100.00
37778;BME280;23615;51.506;7.678;2023-12-22T07:45:47;98631.09;;;5.27;100.00
37778;BME280;23615;51.506;7.678;2023-12-22T07:48:14;98638.50;;;5.37;100.00
37778;BME280;23615;51.506;7.678;2023-12-22T07:50:40;98640.97;;;5.32;100.00
37778;BME280;23615;51.506;7.678;2023-12-22T07:53:07;98624.13;;;5.44;100.00
37778;BME280;23615;51.506;7.678;2023-12-22T07:55:33;98607.69;;;5.42;100.00
37778;BME280;23615;51.506;7.678;2023-12-22T07:57:58;98608.72;;;5.41;100.00
37778;BME280;23615;51.506;7.678;2023-12-22T08:00:23;98601.22;;;5.38;100.00
37778;BME280;23615;51.506;7.678;2023-12-22T08:02:49;98613.19;;;5.41;100.00
37778;BME280;23615;51.506;7.678;2023-12-22T08:05:14;98605.75;;;5.49;100.00
37778;BME280;23615;51.506;7.678;2023-12-22T08:07:40;98600.00;;;5.52;100.00
37778;BME280;23615;51.506;7.678;2023-12-22T08:10:06;98593.69;;;5.53;100.00
37778;BME280;23615;51.506;7.678;2023-12-22T08:12:31;98611.41;;;5.64;100.00
37778;BME280;23615;51.506;7.678;2023-12-22T08:14:58;98600.22;;;5.51;100.00
37778;BME280;23615;51.506;7.678;2023-12-22T08:17:23;98598.88;;;5.60;100.00
37778;BME280;23615;51.506;7.678;2023-12-22T08:19:49;98602.44;;;5.65;100.00
37778;BME280;23615;51.506;7.678;2023-12-22T08:22:14;98594.88;;;5.69;100.00
37778;BME280;23615;51.506;7.678;2023-12-22T08:24:40;98594.84;;;5.57;100.00
37778;BME280;23615;51.506;7.678;2023-12-22T08:27:06;98594.34;;;5.49;100.00
37778;BME280;23615;51.506;7.678;2023-12-22T08:29:32;98583.94;;;5.65;100.00
37778;BME280;23615;51.506;7.678;2023-12-22T08:31:57;98585.09;;;5.70;100.00
37778;BME280;23615;51.506;7.678;2023-12-22T08:34:23;98589.22;;;5.65;100.00
37778;BME280;23615;51.506;7.678;2023-12-22T08:36:49;98587.78;;;5.81;100.00
37778;BME280;23615;51.506;7.678;2023-12-22T08:39:14;98590.13;;;5.89;100.00
37778;BME280;23615;51.506;7.678;2023-12-22T08:41:39;98595.81;;;5.86;100.00
37778;BME280;23615;51.506;7.678;2023-12-22T08:44:06;98609.16;;;5.80;100.00
37778;BME280;23615;51.506;7.678;2023-12-22T08:46:31;98600.53;;;5.73;100.00
37778;BME280;23615;51.506;7.678;2023-12-22T08:48:57;98633.38;;;5.53;100.00
37778;BME280;23615;51.506;7.678;2023-12-22T08:51:27;98622.75;;;5.42;100.00
37778;BME280;23615;51.506;7.678;2023-12-22T08:53:56;98629.31;;;5.21;100.00
37778;BME280;23615;51.506;7.678;2023-12-22T08:56:22;98590.97;;;5.30;100.00
37778;BME280;23615;51.506;7.678;2023-12-22T08:58:53;98604.66;;;5.69;100.00
37778;BME280;23615;51.506;7.678;2023-12-22T09:01:20;98640.63;;;5.88;100.00
37778;BME280;23615;51.506;7.678;2023-12-22T09:03:47;98660.75;;;5.89;100.00
37778;BME280;23615;51.506;7.678;2023-12-22T09:06:16;98632.59;;;6.06;100.00
37778;BME280;23615;51.506;7.678;2023-12-22T09:08:42;98636.88;;;6.19;100.00
37778;BME280;23615;51.506;7.678;2023-12-22T09:11:08;98665.06;;;6.13;100.00
37778;BME280;23615;51.506;7.678;2023-12-22T09:13:33;98626.50;;;6.06;100.00
37778;BME280;23615;51.506;7.678;2023-12-22T09:16:01;98627.75;;;5.91;100.00
37778;BME280;23615;51.506;7.678;2023-12-22T09:18:26;98629.50;;;6.09;100.00
37778;BME280;23615;51.506;7.678;2023-12-22T09:20:51;98626.97;;;6.26;100.00
37778;BME280;23615;51.506;7.678;2023-12-22T09:23:17;98624.91;;;6.51;100.00
37778;BME280;23615;51.506;7.678;2023-12-22T09:25:42;98616.38;;;6.61;100.00
37778;BME280;23615;51.506;7.678;2023-12-22T09:28:07;98607.81;;;6.70;100.00
37778;BME280;23615;51.506;7.678;2023-12-22T09:30:32;98639.94;;;6.74;100.00
37778;BME280;23615;51.506;7.678;2023-12-22T09:32:58;98622.47;;;6.73;100.00
37778;BME280;23615;51.506;7.678;2023-12-22T09:35:23;98609.53;;;6.76;100.00
37778;BME280;23615;51.506;7.678;2023-12-22T09:37:50;98621.16;;;6.87;100.00
37778;BME280;23615;51.506;7.678;2023-12-22T09:40:16;98629.31;;;6.97;100.00
37778;BME280;23615;51.506;7.678;2023-12-22T09:42:41;98615.34;;;7.02;100.00
37778;BME280;23615;51.506;7.678;2023-12-22T09:45:10;98600.94;;;7.09;100.00
37778;BME280;23615;51.506;7.678;2023-12-22T09:47:37;98607.28;;;7.08;100.00
37778;BME280;23615;51.506;7.678;2023-12-22T09:50:04;98617.88;;;7.08;100.00
37778;BME280;23615;51.506;7.678;2023-12-22T09:52:31;98626.66;;;7.09;100.00
37778;BME280;23615;51.506;7.678;2023-12-22T09:54:57;98622.00;;;7.16;100.00
37778;BME280;23615;51.506;7.678;2023-12-22T09:57:24;98607.03;;;7.10;100.00
37778;BME280;23615;51.506;7.678;2023-12-22T09:59:51;98601.19;;;6.96;100.00
37778;BME280;23615;51.506;7.678;2023-12-22T10:02:19;98588.75;;;6.85;100.00
37778;BME280;23615;51.506;7.678;2023-12-22T10:04:45;98614.03;;;6.76;100.00
37778;BME280;23615;51.506;7.678;2023-12-22T10:07:11;98589.03;;;6.72;100.00
37778;BME280;23615;51.506;7.678;2023-12-22T10:09:39;98585.03;;;6.58;100.00
37778;BME280;23615;51.506;7.678;2023-12-22T10:12:05;98594.59;;;6.59;100.00
37778;BME280;23615;51.506;7.678;2023-12-22T10:14:32;98610.94;;;6.56;100.00
37778;BME280;23615;51.506;7.678;2023-12-22T10:16:59;98616.59;;;6.48;100.00
37778;BME280;23615;51.506;7.678;2023-12-22T10:19:24;98598.50;;;6.68;100.00
37778;BME280;23615;51.506;7.678;2023-12-22T10:21:49;98588.69;;;6.68;100.00
37778;BME280;23615;51.506;7.678;2023-12-22T10:27:10;98567.28;;;6.58;100.00
37778;BME280;23615;51.506;7.678;2023-12-22T10:29:36;98561.38;;;6.68;100.00
37778;BME280;23615;51.506;7.678;2023-12-22T10:32:03;98563.91;;;6.74;100.00
37778;BME280;23615;51.506;7.678;2023-12-22T10:34:29;98576.47;;;6.79;100.00
37778;BME280;23615;51.506;7.678;2023-12-22T10:36:55;98569.47;;;6.73;100.00
37778;BME280;23615;51.506;7.678;2023-12-22T10:39:21;98576.47;;;6.67;100.00
37778;BME280;23615;51.506;7.678;2023-12-22T10:41:47;98554.97;;;6.64;100.00
37778;BME280;23615;51.506;7.678;2023-12-22T10:44:14;98556.34;;;6.55;100.00
37778;BME280;23615;51.506;7.678;2023-12-22T10:46:39;98558.19;;;6.54;100.00
37778;BME280;23615;51.506;7.678;2023-12-22T10:49:05;98562.94;;;6.52;100.00
37778;BME280;23615;51.506;7.678;2023-12-22T10:51:32;98548.41;;;6.55;100.00
37778;BME280;23615;51.506;7.678;2023-12-22T10:53:58;98554.47;;;6.67;100.00
37778;BME280;23615;51.506;7.678;2023-12-22T10:56:24;98546.78;;;6.94;100.00
37778;BME280;23615;51.506;7.678;2023-12-22T10:58:51;98539.88;;;6.93;100.00
37778;BME280;23615;51.506;7.678;2023-12-22T11:01:17;98526.53;;;6.88;100.00
37778;BME280;23615;51.506;7.678;2023-12-22T11:03:49;98545.91;;;6.88;100.00
37778;BME280;23615;51.506;7.678;2023-12-22T11:06:16;98551.88;;;6.84;100.00
37778;BME280;23615;51.506;7.678;2023-12-22T11:08:43;98536.78;;;6.84;100.00
37778;BME280;23615;51.506;7.678;2023-12-22T11:13:53;98534.63;;;6.81;100.00
37778;BME280;23615;51.506;7.678;2023-12-22T11:16:21;98522.41;;;6.80;100.00
37778;BME280;23615;51.506;7.678;2023-12-22T11:18:48;98529.31;;;6.81;100.00
37778;BME280;23615;51.506;7.678;2023-12-22T11:21:13;98522.41;;;6.80;100.00
37778;BME280;23615;51.506;7.678;2023-12-22T11:23:39;98533.09;;;6.85;100.00
37778;BME280;23615;51.506;7.678;2023-12-22T11:26:06;98528.16;;;6.89;100.00
37778;BME280;23615;51.506;7.678;2023-12-22T11:28:34;98544.63;;;6.91;100.00
37778;BME280;23615;51.506;7.678;2023-12-22T11:31:01;98533.91;;;6.86;100.00
37778;BME280;23615;51.506;7.678;2023-12-22T11:33:28;98531.22;;;6.97;100.00
37778;BME280;23615;51.506;7.678;2023-12-22T11:35:55;98517.25;;;7.02;100.00
37778;BME280;23615;51.506;7.678;2023-12-22T11:38:21;98513.63;;;6.91;100.00
37778;BME280;23615;51.506;7.678;2023-12-22T11:40:49;98534.25;;;6.89;100.00
37778;BME280;23615;51.506;7.678;2023-12-22T11:43:15;98535.28;;;6.88;100.00
37778;BME280;23615;51.506;7.678;2023-12-22T11:45:42;98532.72;;;6.93;100.00
37778;BME280;23615;51.506;7.678;2023-12-22T11:48:08;98518.13;;;6.91;100.00
37778;BME280;23615;51.506;7.678;2023-12-22T11:50:35;98544.06;;;6.77;100.00
37778;BME280;23615;51.506;7.678;2023-12-22T12:01:17;98525.63;;;6.82;100.00
37778;BME280;23615;51.506;7.678;2023-12-22T12:03:52;98528.38;;;6.87;100.00
37778;BME280;23615;51.506;7.678;2023-12-22T12:06:22;98520.56;;;6.81;100.00
37778;BME280;23615;51.506;7.678;2023-12-22T12:08:47;98510.72;;;6.93;100.00
37778;BME280;23615;51.506;7.678;2023-12-22T12:11:14;98522.03;;;6.88;100.00
37778;BME280;23615;51.506;7.678;2023-12-22T12:13:43;98519.63;;;6.87;100.00
37778;BME280;23615;51.506;7.678;2023-12-22T12:16:13;98517.97;;;6.97;100.00
37778;BME280;23615;51.506;7.678;2023-12-22T12:18:39;98510.81;;;6.98;100.00
37778;BME280;23615;51.506;7.678;2023-12-22T12:21:10;98516.19;;;7.03;100.00
37778;BME280;23615;51.506;7.678;2023-12-22T12:23:35;98492.22;;;7.09;100.00
37778;BME280;23615;51.506;7.678;2023-12-22T12:26:01;98507.63;;;7.12;100.00
37778;BME280;23615;51.506;7.678;2023-12-22T12:28:29;98508.66;;;7.11;100.00
37778;BME280;23615;51.506;7.678;2023-12-22T12:31:00;98503.66;;;6.98;100.00
37778;BME280;23615;51.506;7.678;2023-12-22T12:33:27;98512.63;;;7.09;100.00
37778;BME280;23615;51.506;7.678;2023-12-22T12:35:54;98525.19;;;7.02;100.00
37778;BME280;23615;51.506;7.678;2023-12-22T12:38:21;98522.88;;;7.05;100.00
37778;BME280;23615;51.506;7.678;2023-12-22T12:40:50;98518.03;;;7.02;100.00
37778;BME280;23615;51.506;7.678;2023-12-22T12:43:17;98503.31;;;6.95;100.00
37778;BME280;23615;51.506;7.678;2023-12-22T12:45:42;98508.25;;;7.03;100.00
37778;BME280;23615;51.506;7.678;2023-12-22T12:48:07;98511.59;;;6.82;100.00
37778;BME280;23615;51.506;7.678;2023-12-22T12:50:33;98481.31;;;6.94;100.00
37778;BME280;23615;51.506;7.678;2023-12-22T12:52:59;98499.25;;;7.04;100.00
37778;BME280;23615;51.506;7.678;2023-12-22T12:55:25;98501.25;;;6.97;100.00
37778;BME280;23615;51.506;7.678;2023-12-22T12:57:51;98502.28;;;6.96;100.00
37778;BME280;23615;51.506;7.678;2023-12-22T13:00:24;98509.78;;;6.99;100.00
37778;BME280;23615;51.506;7.678;2023-12-22T13:02:50;98500.53;;;7.01;100.00
37778;BME280;23615;51.506;7.678;2023-12-22T13:05:25;98495.13;;;6.96;100.00
37778;BME280;23615;51.506;7.678;2023-12-22T13:07:51;98505.69;;;7.08;100.00
37778;BME280;23615;51.506;7.678;2023-12-22T13:10:23;98500.53;;;7.01;100.00
37778;BME280;23615;51.506;7.678;2023-12-22T13:12:52;98493.63;;;7.00;100.00
37778;BME280;23615;51.506;7.678;2023-12-22T13:15:20;98502.13;;;7.02;100.00